sensor_id;sensor_type;location;lat;lon;timestamp;P1;durP1;ratioP1;P2;durP2;ratioP2
58196;SDS011;43999;51.660;5.616;2023-02-15T00:01:22;39.90;;;28.10;;
58196;SDS011;43999;51.660;5.616;2023-02-15T00:03:53;37.28;;;27.63;;
58196;SDS011;43999;51.660;5.616;2023-02-15T00:06:24;36.30;;;27.42;;
58196;SDS011;43999;51.660;5.616;2023-02-15T00:09:01;37.78;;;28.10;;
58196;SDS011;43999;51.660;5.616;2023-02-15T00:11:33;36.38;;;29.20;;
58196;SDS011;43999;51.660;5.616;2023-02-15T00:14:19;37.15;;;28.85;;
58196;SDS011;43999;51.660;5.616;2023-02-15T00:16:53;35.25;;;27.40;;
58196;SDS011;43999;51.660;5.616;2023-02-15T00:19:29;40.80;;;31.05;;
58196;SDS011;43999;51.660;5.616;2023-02-15T00:21:59;37.05;;;29.80;;
58196;SDS011;43999;51.660;5.616;2023-02-15T00:24:30;41.30;;;29.50;;
58196;SDS011;43999;51.660;5.616;2023-02-15T00:27:00;39.70;;;28.45;;
58196;SDS011;43999;51.660;5.616;2023-02-15T00:29:28;36.67;;;28.50;;
58196;SDS011;43999;51.660;5.616;2023-02-15T00:32:03;40.53;;;31.25;;
58196;SDS011;43999;51.660;5.616;2023-02-15T00:34:32;34.67;;;29.20;;
58196;SDS011;43999;51.660;5.616;2023-02-15T00:37:08;44.00;;;30.70;;
58196;SDS011;43999;51.660;5.616;2023-02-15T00:39:36;39.85;;;27.92;;
58196;SDS011;43999;51.660;5.616;2023-02-15T00:42:13;38.55;;;31.15;;
58196;SDS011;43999;51.660;5.616;2023-02-15T00:45:05;45.08;;;33.42;;
58196;SDS011;43999;51.660;5.616;2023-02-15T00:47:45;45.88;;;31.42;;
58196;SDS011;43999;51.660;5.616;2023-02-15T00:50:15;41.53;;;28.65;;
58196;SDS011;43999;51.660;5.616;2023-02-15T00:52:45;37.90;;;31.92;;
58196;SDS011;43999;51.660;5.616;2023-02-15T00:55:14;41.15;;;29.70;;
58196;SDS011;43999;51.660;5.616;2023-02-15T00:57:48;35.42;;;30.88;;
58196;SDS011;43999;51.660;5.616;2023-02-15T01:00:16;43.95;;;32.72;;
58196;SDS011;43999;51.660;5.616;2023-02-15T01:02:44;36.72;;;29.98;;
58196;SDS011;43999;51.660;5.616;2023-02-15T01:05:13;38.60;;;31.80;;
58196;SDS011;43999;51.660;5.616;2023-02-15T01:07:44;38.80;;;29.73;;
58196;SDS011;43999;51.660;5.616;2023-02-15T01:10:14;38.90;;;31.75;;
58196;SDS011;43999;51.660;5.616;2023-02-15T01:12:50;43.15;;;31.38;;
58196;SDS011;43999;51.660;5.616;2023-02-15T01:15:24;38.60;;;29.30;;
58196;SDS011;43999;51.660;5.616;2023-02-15T01:17:52;39.33;;;30.75;;
58196;SDS011;43999;51.660;5.616;2023-02-15T01:20:24;39.38;;;31.10;;
58196;SDS011;43999;51.660;5.616;2023-02-15T01:22:58;43.08;;;32.17;;
58196;SDS011;43999;51.660;5.616;2023-02-15T01:25:27;38.53;;;28.95;;
58196;SDS011;43999;51.660;5.616;2023-02-15T01:27:56;48.17;;;30.50;;
58196;SDS011;43999;51.660;5.616;2023-02-15T01:30:27;40.15;;;30.80;;
58196;SDS011;43999;51.660;5.616;2023-02-15T01:32:57;43.42;;;29.88;;
58196;SDS011;43999;51.660;5.616;2023-02-15T01:35:29;40.78;;;31.67;;
58196;SDS011;43999;51.660;5.616;2023-02-15T01:37:59;47.83;;;33.00;;
58196;SDS011;43999;51.660;5.616;2023-02-15T01:40:37;41.65;;;33.13;;
58196;SDS011;43999;51.660;5.616;2023-02-15T01:43:15;42.08;;;30.20;;
58196;SDS011;43999;51.660;5.616;2023-02-15T01:45:45;42.20;;;29.48;;
58196;SDS011;43999;51.660;5.616;2023-02-15T01:48:22;47.55;;;32.97;;
58196;SDS011;43999;51.660;5.616;2023-02-15T01:53:42;34.40;;;28.15;;
58196;SDS011;43999;51.660;5.616;2023-02-15T01:56:33;35.42;;;30.02;;
58196;SDS011;43999;51.660;5.616;2023-02-15T01:59:09;35.30;;;29.00;;
58196;SDS011;43999;51.660;5.616;2023-02-15T02:01:49;38.08;;;29.08;;
58196;SDS011;43999;51.660;5.616;2023-02-15T02:04:31;36.35;;;30.20;;
58196;SDS011;43999;51.660;5.616;2023-02-15T02:07:19;41.20;;;31.40;;
58196;SDS011;43999;51.660;5.616;2023-02-15T02:10:01;39.80;;;30.05;;
58196;SDS011;43999;51.660;5.616;2023-02-15T02:12:34;42.65;;;30.02;;
58196;SDS011;43999;51.660;5.616;2023-02-15T02:15:11;37.70;;;29.92;;
58196;SDS011;43999;51.660;5.616;2023-02-15T02:21:52;43.08;;;30.65;;
58196;SDS011;43999;51.660;5.616;2023-02-15T02:34:03;39.00;;;29.33;;
58196;SDS011;43999;51.660;5.616;2023-02-15T02:40:16;36.72;;;28.17;;
58196;SDS011;43999;51.660;5.616;2023-02-15T02:43:10;38.40;;;28.48;;
58196;SDS011;43999;51.660;5.616;2023-02-15T02:46:28;37.72;;;26.85;;
58196;SDS011;43999;51.660;5.616;2023-02-15T02:49:39;38.30;;;28.77;;
58196;SDS011;43999;51.660;5.616;2023-02-15T02:55:10;36.20;;;27.42;;
58196;SDS011;43999;51.660;5.616;2023-02-15T03:00:30;38.28;;;27.73;;
58196;SDS011;43999;51.660;5.616;2023-02-15T03:03:12;34.38;;;28.52;;
58196;SDS011;43999;51.660;5.616;2023-02-15T03:05:53;36.60;;;29.50;;
58196;SDS011;43999;51.660;5.616;2023-02-15T03:08:36;39.25;;;26.90;;
58196;SDS011;43999;51.660;5.616;2023-02-15T03:11:27;33.05;;;28.13;;
58196;SDS011;43999;51.660;5.616;2023-02-15T03:13:58;37.33;;;29.25;;
58196;SDS011;43999;51.660;5.616;2023-02-15T03:16:31;34.30;;;26.73;;
58196;SDS011;43999;51.660;5.616;2023-02-15T03:19:02;38.22;;;27.50;;
58196;SDS011;43999;51.660;5.616;2023-02-15T03:21:57;35.03;;;27.67;;
58196;SDS011;43999;51.660;5.616;2023-02-15T03:27:43;41.55;;;27.98;;
58196;SDS011;43999;51.660;5.616;2023-02-15T03:30:28;34.45;;;25.83;;
58196;SDS011;43999;51.660;5.616;2023-02-15T03:32:59;34.58;;;28.20;;
58196;SDS011;43999;51.660;5.616;2023-02-15T03:35:47;36.00;;;26.38;;
58196;SDS011;43999;51.660;5.616;2023-02-15T03:38:59;34.85;;;26.48;;
58196;SDS011;43999;51.660;5.616;2023-02-15T03:42:08;39.83;;;27.10;;
58196;SDS011;43999;51.660;5.616;2023-02-15T03:50:13;36.90;;;27.20;;
58196;SDS011;43999;51.660;5.616;2023-02-15T03:53:17;32.38;;;24.90;;
58196;SDS011;43999;51.660;5.616;2023-02-15T03:55:52;35.88;;;25.58;;
58196;SDS011;43999;51.660;5.616;2023-02-15T03:58:23;36.17;;;26.95;;
58196;SDS011;43999;51.660;5.616;2023-02-15T04:01:13;36.33;;;28.13;;
58196;SDS011;43999;51.660;5.616;2023-02-15T04:04:33;33.67;;;24.58;;
58196;SDS011;43999;51.660;5.616;2023-02-15T04:07:12;32.03;;;27.08;;
58196;SDS011;43999;51.660;5.616;2023-02-15T04:09:40;41.05;;;27.88;;
58196;SDS011;43999;51.660;5.616;2023-02-15T04:12:26;36.42;;;28.95;;
58196;SDS011;43999;51.660;5.616;2023-02-15T04:14:54;39.35;;;30.17;;
58196;SDS011;43999;51.660;5.616;2023-02-15T04:17:41;32.88;;;26.42;;
58196;SDS011;43999;51.660;5.616;2023-02-15T04:20:08;41.10;;;27.10;;
58196;SDS011;43999;51.660;5.616;2023-02-15T04:22:58;36.00;;;26.92;;
58196;SDS011;43999;51.660;5.616;2023-02-15T04:25:44;33.33;;;26.35;;
58196;SDS011;43999;51.660;5.616;2023-02-15T04:28:18;37.83;;;28.20;;
58196;SDS011;43999;51.660;5.616;2023-02-15T04:30:49;35.00;;;28.48;;
58196;SDS011;43999;51.660;5.616;2023-02-15T04:33:19;36.88;;;26.20;;
58196;SDS011;43999;51.660;5.616;2023-02-15T04:35:55;33.47;;;25.25;;
58196;SDS011;43999;51.660;5.616;2023-02-15T04:38:23;35.33;;;28.88;;
58196;SDS011;43999;51.660;5.616;2023-02-15T04:40:52;37.25;;;25.80;;
58196;SDS011;43999;51.660;5.616;2023-02-15T04:43:27;38.10;;;29.10;;
58196;SDS011;43999;51.660;5.616;2023-02-15T04:45:57;36.00;;;26.63;;
58196;SDS011;43999;51.660;5.616;2023-02-15T04:48:34;42.50;;;28.83;;
58196;SDS011;43999;51.660;5.616;2023-02-15T04:51:11;35.78;;;28.38;;
58196;SDS011;43999;51.660;5.616;2023-02-15T04:53:43;41.22;;;30.15;;
58196;SDS011;43999;51.660;5.616;2023-02-15T04:56:19;32.53;;;25.77;;
58196;SDS011;43999;51.660;5.616;2023-02-15T04:58:47;42.10;;;29.30;;
58196;SDS011;43999;51.660;5.616;2023-02-15T05:01:18;38.35;;;27.05;;
58196;SDS011;43999;51.660;5.616;2023-02-15T05:03:49;38.20;;;29.75;;
58196;SDS011;43999;51.660;5.616;2023-02-15T05:06:24;40.33;;;29.17;;
58196;SDS011;43999;51.660;5.616;2023-02-15T05:08:53;35.03;;;29.40;;
58196;SDS011;43999;51.660;5.616;2023-02-15T05:11:27;37.08;;;28.90;;
58196;SDS011;43999;51.660;5.616;2023-02-15T05:13:55;38.97;;;27.50;;
58196;SDS011;43999;51.660;5.616;2023-02-15T05:16:24;41.22;;;29.50;;
58196;SDS011;43999;51.660;5.616;2023-02-15T05:18:55;40.95;;;28.58;;
58196;SDS011;43999;51.660;5.616;2023-02-15T05:21:23;35.67;;;25.70;;
58196;SDS011;43999;51.660;5.616;2023-02-15T05:23:59;38.83;;;30.83;;
58196;SDS011;43999;51.660;5.616;2023-02-15T05:26:33;37.08;;;29.85;;
58196;SDS011;43999;51.660;5.616;2023-02-15T05:29:20;38.40;;;28.30;;
58196;SDS011;43999;51.660;5.616;2023-02-15T05:31:50;41.00;;;28.85;;
58196;SDS011;43999;51.660;5.616;2023-02-15T05:34:18;40.65;;;30.52;;
58196;SDS011;43999;51.660;5.616;2023-02-15T05:36:48;41.50;;;28.05;;
58196;SDS011;43999;51.660;5.616;2023-02-15T05:39:16;40.70;;;30.60;;
58196;SDS011;43999;51.660;5.616;2023-02-15T05:41:48;38.35;;;30.15;;
58196;SDS011;43999;51.660;5.616;2023-02-15T05:44:18;37.15;;;27.17;;
58196;SDS011;43999;51.660;5.616;2023-02-15T05:47:19;40.40;;;30.45;;
58196;SDS011;43999;51.660;5.616;2023-02-15T05:50:28;41.63;;;28.77;;
58196;SDS011;43999;51.660;5.616;2023-02-15T05:53:12;36.25;;;26.88;;
58196;SDS011;43999;51.660;5.616;2023-02-15T05:55:42;42.05;;;31.52;;
58196;SDS011;43999;51.660;5.616;2023-02-15T05:58:17;41.65;;;31.65;;
58196;SDS011;43999;51.660;5.616;2023-02-15T06:00:51;39.75;;;29.38;;
58196;SDS011;43999;51.660;5.616;2023-02-15T06:03:22;41.47;;;32.53;;
58196;SDS011;43999;51.660;5.616;2023-02-15T06:05:52;41.20;;;29.52;;
58196;SDS011;43999;51.660;5.616;2023-02-15T06:08:31;41.78;;;30.23;;
58196;SDS011;43999;51.660;5.616;2023-02-15T06:11:02;43.50;;;30.48;;
58196;SDS011;43999;51.660;5.616;2023-02-15T06:13:35;37.95;;;29.58;;
58196;SDS011;43999;51.660;5.616;2023-02-15T06:16:04;41.50;;;29.63;;
58196;SDS011;43999;51.660;5.616;2023-02-15T06:18:40;41.70;;;29.75;;
58196;SDS011;43999;51.660;5.616;2023-02-15T06:21:09;40.50;;;28.70;;
58196;SDS011;43999;51.660;5.616;2023-02-15T06:23:38;41.13;;;29.55;;
58196;SDS011;43999;51.660;5.616;2023-02-15T06:26:19;43.70;;;32.20;;
58196;SDS011;43999;51.660;5.616;2023-02-15T06:28:48;38.90;;;28.73;;
58196;SDS011;43999;51.660;5.616;2023-02-15T06:31:21;42.90;;;28.77;;
58196;SDS011;43999;51.660;5.616;2023-02-15T06:33:57;35.55;;;27.73;;
58196;SDS011;43999;51.660;5.616;2023-02-15T06:36:32;40.17;;;29.90;;
58196;SDS011;43999;51.660;5.616;2023-02-15T06:38:59;41.00;;;28.88;;
58196;SDS011;43999;51.660;5.616;2023-02-15T06:41:41;45.25;;;31.20;;
58196;SDS011;43999;51.660;5.616;2023-02-15T06:44:16;41.55;;;29.10;;
58196;SDS011;43999;51.660;5.616;2023-02-15T06:46:45;46.22;;;33.28;;
58196;SDS011;43999;51.660;5.616;2023-02-15T06:49:28;40.38;;;29.40;;
58196;SDS011;43999;51.660;5.616;2023-02-15T06:52:02;41.75;;;29.60;;
58196;SDS011;43999;51.660;5.616;2023-02-15T06:54:32;41.75;;;31.73;;
58196;SDS011;43999;51.660;5.616;2023-02-15T06:57:00;40.10;;;30.15;;
58196;SDS011;43999;51.660;5.616;2023-02-15T06:59:30;44.83;;;32.58;;
58196;SDS011;43999;51.660;5.616;2023-02-15T07:01:59;38.78;;;29.50;;
58196;SDS011;43999;51.660;5.616;2023-02-15T07:04:34;39.03;;;28.17;;
58196;SDS011;43999;51.660;5.616;2023-02-15T07:07:02;39.90;;;30.10;;
58196;SDS011;43999;51.660;5.616;2023-02-15T07:09:34;45.22;;;30.98;;
58196;SDS011;43999;51.660;5.616;2023-02-15T07:12:11;39.45;;;31.33;;
58196;SDS011;43999;51.660;5.616;2023-02-15T07:14:57;34.85;;;25.17;;
58196;SDS011;43999;51.660;5.616;2023-02-15T07:17:27;38.80;;;28.65;;
58196;SDS011;43999;51.660;5.616;2023-02-15T07:20:12;41.92;;;32.03;;
58196;SDS011;43999;51.660;5.616;2023-02-15T07:22:49;48.17;;;35.33;;
58196;SDS011;43999;51.660;5.616;2023-02-15T07:25:19;44.80;;;33.17;;
58196;SDS011;43999;51.660;5.616;2023-02-15T07:27:55;45.00;;;30.33;;
58196;SDS011;43999;51.660;5.616;2023-02-15T07:30:25;38.60;;;29.30;;
58196;SDS011;43999;51.660;5.616;2023-02-15T07:32:57;40.10;;;31.38;;
58196;SDS011;43999;51.660;5.616;2023-02-15T07:35:55;43.80;;;31.48;;
58196;SDS011;43999;51.660;5.616;2023-02-15T07:38:35;36.97;;;30.30;;
58196;SDS011;43999;51.660;5.616;2023-02-15T07:41:26;43.10;;;31.27;;
58196;SDS011;43999;51.660;5.616;2023-02-15T07:44:13;47.78;;;31.58;;
58196;SDS011;43999;51.660;5.616;2023-02-15T07:46:46;41.22;;;30.88;;
58196;SDS011;43999;51.660;5.616;2023-02-15T07:49:17;41.53;;;30.02;;
58196;SDS011;43999;51.660;5.616;2023-02-15T07:51:53;34.63;;;30.95;;
58196;SDS011;43999;51.660;5.616;2023-02-15T07:54:22;43.65;;;32.30;;
58196;SDS011;43999;51.660;5.616;2023-02-15T07:56:59;42.60;;;31.30;;
58196;SDS011;43999;51.660;5.616;2023-02-15T07:59:52;39.22;;;30.10;;
58196;SDS011;43999;51.660;5.616;2023-02-15T08:02:19;48.28;;;32.55;;
58196;SDS011;43999;51.660;5.616;2023-02-15T08:04:47;46.13;;;32.67;;
58196;SDS011;43999;51.660;5.616;2023-02-15T08:07:20;43.25;;;33.33;;
58196;SDS011;43999;51.660;5.616;2023-02-15T08:09:50;41.60;;;32.50;;
58196;SDS011;43999;51.660;5.616;2023-02-15T08:12:27;40.38;;;31.80;;
58196;SDS011;43999;51.660;5.616;2023-02-15T08:14:55;38.40;;;32.30;;
58196;SDS011;43999;51.660;5.616;2023-02-15T08:17:25;42.72;;;33.42;;
58196;SDS011;43999;51.660;5.616;2023-02-15T08:19:57;46.60;;;30.98;;
58196;SDS011;43999;51.660;5.616;2023-02-15T08:22:30;45.05;;;33.40;;
58196;SDS011;43999;51.660;5.616;2023-02-15T08:25:04;42.60;;;32.80;;
58196;SDS011;43999;51.660;5.616;2023-02-15T08:27:40;44.70;;;31.73;;
58196;SDS011;43999;51.660;5.616;2023-02-15T08:30:18;44.88;;;35.42;;
58196;SDS011;43999;51.660;5.616;2023-02-15T08:32:48;44.38;;;34.90;;
58196;SDS011;43999;51.660;5.616;2023-02-15T08:35:19;44.65;;;32.33;;
58196;SDS011;43999;51.660;5.616;2023-02-15T08:37:51;42.63;;;34.38;;
58196;SDS011;43999;51.660;5.616;2023-02-15T08:40:24;44.20;;;32.80;;
58196;SDS011;43999;51.660;5.616;2023-02-15T08:43:03;41.67;;;31.05;;
58196;SDS011;43999;51.660;5.616;2023-02-15T08:45:31;50.72;;;34.58;;
58196;SDS011;43999;51.660;5.616;2023-02-15T08:48:04;39.58;;;31.75;;
58196;SDS011;43999;51.660;5.616;2023-02-15T08:50:44;42.70;;;31.85;;
58196;SDS011;43999;51.660;5.616;2023-02-15T08:53:17;40.50;;;31.20;;
58196;SDS011;43999;51.660;5.616;2023-02-15T08:55:57;54.10;;;34.88;;
58196;SDS011;43999;51.660;5.616;2023-02-15T08:58:44;46.03;;;33.50;;
58196;SDS011;43999;51.660;5.616;2023-02-15T09:01:23;45.92;;;31.20;;
58196;SDS011;43999;51.660;5.616;2023-02-15T09:03:59;44.80;;;33.00;;
58196;SDS011;43999;51.660;5.616;2023-02-15T09:06:45;41.63;;;30.13;;
58196;SDS011;43999;51.660;5.616;2023-02-15T09:09:31;47.50;;;32.17;;
58196;SDS011;43999;51.660;5.616;2023-02-15T09:12:00;40.80;;;35.40;;
58196;SDS011;43999;51.660;5.616;2023-02-15T09:14:30;43.92;;;32.20;;
58196;SDS011;43999;51.660;5.616;2023-02-15T09:16:59;40.25;;;33.90;;
58196;SDS011;43999;51.660;5.616;2023-02-15T09:19:28;38.50;;;30.85;;
58196;SDS011;43999;51.660;5.616;2023-02-15T09:22:03;39.97;;;30.45;;
58196;SDS011;43999;51.660;5.616;2023-02-15T09:24:57;46.13;;;33.40;;
58196;SDS011;43999;51.660;5.616;2023-02-15T09:27:26;39.72;;;31.48;;
58196;SDS011;43999;51.660;5.616;2023-02-15T09:29:55;44.88;;;31.20;;
58196;SDS011;43999;51.660;5.616;2023-02-15T09:32:33;43.83;;;32.53;;
58196;SDS011;43999;51.660;5.616;2023-02-15T09:35:04;41.78;;;31.63;;
58196;SDS011;43999;51.660;5.616;2023-02-15T09:37:35;38.70;;;32.13;;
58196;SDS011;43999;51.660;5.616;2023-02-15T09:40:06;39.35;;;28.90;;
58196;SDS011;43999;51.660;5.616;2023-02-15T09:45:57;43.00;;;31.27;;
58196;SDS011;43999;51.660;5.616;2023-02-15T09:52:31;38.08;;;30.33;;
58196;SDS011;43999;51.660;5.616;2023-02-15T10:02:20;45.00;;;32.17;;
58196;SDS011;43999;51.660;5.616;2023-02-15T10:05:37;40.85;;;31.83;;
58196;SDS011;43999;51.660;5.616;2023-02-15T10:15:30;41.17;;;29.38;;
58196;SDS011;43999;51.660;5.616;2023-02-15T10:19:01;38.38;;;30.40;;
58196;SDS011;43999;51.660;5.616;2023-02-15T10:29:00;39.25;;;33.20;;
58196;SDS011;43999;51.660;5.616;2023-02-15T10:34:38;42.28;;;31.77;;
58196;SDS011;43999;51.660;5.616;2023-02-15T10:44:58;36.75;;;32.70;;
58196;SDS011;43999;51.660;5.616;2023-02-15T11:05:07;34.88;;;29.77;;
58196;SDS011;43999;51.660;5.616;2023-02-15T11:08:12;32.05;;;28.35;;
58196;SDS011;43999;51.660;5.616;2023-02-15T11:10:51;35.85;;;31.88;;
58196;SDS011;43999;51.660;5.616;2023-02-15T11:13:39;37.00;;;32.60;;
58196;SDS011;43999;51.660;5.616;2023-02-15T11:16:34;33.38;;;29.38;;
58196;SDS011;43999;51.660;5.616;2023-02-15T11:22:37;33.47;;;28.23;;
58196;SDS011;43999;51.660;5.616;2023-02-15T11:25:18;42.38;;;31.25;;
58196;SDS011;43999;51.660;5.616;2023-02-15T11:28:19;31.58;;;28.25;;
58196;SDS011;43999;51.660;5.616;2023-02-15T11:34:39;35.03;;;29.23;;
58196;SDS011;43999;51.660;5.616;2023-02-15T11:38:10;34.90;;;30.50;;
58196;SDS011;43999;51.660;5.616;2023-02-15T11:41:08;37.63;;;31.13;;
58196;SDS011;43999;51.660;5.616;2023-02-15T11:43:52;34.95;;;26.40;;
58196;SDS011;43999;51.660;5.616;2023-02-15T11:47:15;32.67;;;29.25;;
58196;SDS011;43999;51.660;5.616;2023-02-15T11:49:46;31.50;;;28.13;;
58196;SDS011;43999;51.660;5.616;2023-02-15T11:52:22;36.47;;;29.90;;
58196;SDS011;43999;51.660;5.616;2023-02-15T11:54:52;35.00;;;31.38;;
58196;SDS011;43999;51.660;5.616;2023-02-15T11:57:27;38.38;;;29.77;;
58196;SDS011;43999;51.660;5.616;2023-02-15T12:03:17;32.10;;;27.92;;
58196;SDS011;43999;51.660;5.616;2023-02-15T12:06:49;31.52;;;27.42;;
58196;SDS011;43999;51.660;5.616;2023-02-15T12:09:45;33.60;;;27.52;;
58196;SDS011;43999;51.660;5.616;2023-02-15T12:13:09;34.90;;;30.20;;
58196;SDS011;43999;51.660;5.616;2023-02-15T12:16:04;36.15;;;28.27;;
58196;SDS011;43999;51.660;5.616;2023-02-15T12:18:59;35.47;;;28.17;;
58196;SDS011;43999;51.660;5.616;2023-02-15T12:21:38;35.77;;;28.13;;
58196;SDS011;43999;51.660;5.616;2023-02-15T12:24:19;38.45;;;30.92;;
58196;SDS011;43999;51.660;5.616;2023-02-15T12:27:02;35.33;;;30.45;;
58196;SDS011;43999;51.660;5.616;2023-02-15T12:29:51;35.33;;;31.38;;
58196;SDS011;43999;51.660;5.616;2023-02-15T12:32:26;38.40;;;31.42;;
58196;SDS011;43999;51.660;5.616;2023-02-15T12:35:35;33.45;;;29.92;;
58196;SDS011;43999;51.660;5.616;2023-02-15T12:40:37;31.08;;;25.77;;
58196;SDS011;43999;51.660;5.616;2023-02-15T12:43:24;35.05;;;28.45;;
58196;SDS011;43999;51.660;5.616;2023-02-15T12:46:25;35.70;;;29.85;;
58196;SDS011;43999;51.660;5.616;2023-02-15T12:49:17;31.88;;;28.52;;
58196;SDS011;43999;51.660;5.616;2023-02-15T12:51:58;30.88;;;25.83;;
58196;SDS011;43999;51.660;5.616;2023-02-15T12:54:50;34.38;;;28.55;;
58196;SDS011;43999;51.660;5.616;2023-02-15T12:57:32;32.13;;;28.33;;
58196;SDS011;43999;51.660;5.616;2023-02-15T13:03:14;34.55;;;30.52;;
58196;SDS011;43999;51.660;5.616;2023-02-15T13:06:35;32.53;;;28.02;;
58196;SDS011;43999;51.660;5.616;2023-02-15T13:12:21;38.80;;;30.05;;
58196;SDS011;43999;51.660;5.616;2023-02-15T13:18:38;38.17;;;27.80;;
58196;SDS011;43999;51.660;5.616;2023-02-15T13:21:24;35.72;;;28.10;;
58196;SDS011;43999;51.660;5.616;2023-02-15T13:27:10;31.35;;;27.95;;
58196;SDS011;43999;51.660;5.616;2023-02-15T13:30:02;36.78;;;32.85;;
58196;SDS011;43999;51.660;5.616;2023-02-15T13:33:48;34.92;;;30.17;;
58196;SDS011;43999;51.660;5.616;2023-02-15T13:37:03;35.20;;;31.40;;
58196;SDS011;43999;51.660;5.616;2023-02-15T13:40:15;34.33;;;29.73;;
58196;SDS011;43999;51.660;5.616;2023-02-15T13:49:54;37.88;;;31.40;;
58196;SDS011;43999;51.660;5.616;2023-02-15T13:56:59;36.58;;;32.50;;
58196;SDS011;43999;51.660;5.616;2023-02-15T14:00:38;35.70;;;31.17;;
58196;SDS011;43999;51.660;5.616;2023-02-15T14:07:34;36.55;;;30.42;;
58196;SDS011;43999;51.660;5.616;2023-02-15T14:19:54;34.03;;;30.38;;
58196;SDS011;43999;51.660;5.616;2023-02-15T14:23:21;41.67;;;30.98;;
58196;SDS011;43999;51.660;5.616;2023-02-15T14:30:20;35.22;;;29.60;;
58196;SDS011;43999;51.660;5.616;2023-02-15T14:36:16;36.30;;;31.30;;
58196;SDS011;43999;51.660;5.616;2023-02-15T14:42:42;37.30;;;32.40;;
58196;SDS011;43999;51.660;5.616;2023-02-15T14:45:39;41.60;;;31.00;;
58196;SDS011;43999;51.660;5.616;2023-02-15T14:48:16;40.10;;;31.67;;
58196;SDS011;43999;51.660;5.616;2023-02-15T14:52:10;43.72;;;30.75;;
58196;SDS011;43999;51.660;5.616;2023-02-15T15:02:29;38.87;;;30.43;;
58196;SDS011;43999;51.660;5.616;2023-02-15T15:05:51;34.97;;;30.73;;
58196;SDS011;43999;51.660;5.616;2023-02-15T15:08:34;44.90;;;35.65;;
58196;SDS011;43999;51.660;5.616;2023-02-15T15:26:33;39.58;;;33.03;;
58196;SDS011;43999;51.660;5.616;2023-02-15T15:29:07;42.38;;;34.63;;
58196;SDS011;43999;51.660;5.616;2023-02-15T15:37:46;41.00;;;33.17;;
58196;SDS011;43999;51.660;5.616;2023-02-15T15:50:04;40.13;;;30.27;;
58196;SDS011;43999;51.660;5.616;2023-02-15T15:52:52;40.63;;;32.55;;
58196;SDS011;43999;51.660;5.616;2023-02-15T15:55:29;40.85;;;31.55;;
58196;SDS011;43999;51.660;5.616;2023-02-15T15:58:02;34.58;;;30.50;;
58196;SDS011;43999;51.660;5.616;2023-02-15T16:00:47;36.00;;;32.03;;
58196;SDS011;43999;51.660;5.616;2023-02-15T16:03:51;37.03;;;29.77;;
58196;SDS011;43999;51.660;5.616;2023-02-15T16:06:37;37.70;;;31.42;;
58196;SDS011;43999;51.660;5.616;2023-02-15T16:09:18;39.05;;;32.58;;
58196;SDS011;43999;51.660;5.616;2023-02-15T16:11:57;40.38;;;31.42;;
58196;SDS011;43999;51.660;5.616;2023-02-15T16:15:17;38.90;;;31.23;;
58196;SDS011;43999;51.660;5.616;2023-02-15T16:20:31;39.88;;;30.08;;
58196;SDS011;43999;51.660;5.616;2023-02-15T16:23:41;37.25;;;29.65;;
58196;SDS011;43999;51.660;5.616;2023-02-15T16:29:43;41.60;;;32.30;;
58196;SDS011;43999;51.660;5.616;2023-02-15T16:32:23;38.55;;;31.92;;
58196;SDS011;43999;51.660;5.616;2023-02-15T16:35:11;39.50;;;31.83;;
58196;SDS011;43999;51.660;5.616;2023-02-15T16:37:49;41.33;;;33.00;;
58196;SDS011;43999;51.660;5.616;2023-02-15T16:42:57;42.13;;;32.80;;
58196;SDS011;43999;51.660;5.616;2023-02-15T16:45:34;38.67;;;33.40;;
58196;SDS011;43999;51.660;5.616;2023-02-15T16:48:07;43.10;;;34.08;;
58196;SDS011;43999;51.660;5.616;2023-02-15T16:50:55;37.30;;;30.88;;
58196;SDS011;43999;51.660;5.616;2023-02-15T16:53:36;37.08;;;31.98;;
58196;SDS011;43999;51.660;5.616;2023-02-15T16:56:05;38.25;;;32.13;;
58196;SDS011;43999;51.660;5.616;2023-02-15T16:58:48;39.05;;;33.10;;
58196;SDS011;43999;51.660;5.616;2023-02-15T17:01:22;46.83;;;37.63;;
58196;SDS011;43999;51.660;5.616;2023-02-15T17:04:12;39.38;;;33.58;;
58196;SDS011;43999;51.660;5.616;2023-02-15T17:07:15;42.65;;;34.45;;
58196;SDS011;43999;51.660;5.616;2023-02-15T17:09:53;40.38;;;31.55;;
58196;SDS011;43999;51.660;5.616;2023-02-15T17:15:26;38.80;;;31.63;;
58196;SDS011;43999;51.660;5.616;2023-02-15T17:20:49;42.92;;;32.42;;
58196;SDS011;43999;51.660;5.616;2023-02-15T17:23:31;37.40;;;30.02;;
58196;SDS011;43999;51.660;5.616;2023-02-15T17:29:20;37.05;;;30.83;;
58196;SDS011;43999;51.660;5.616;2023-02-15T17:32:17;40.40;;;32.10;;
58196;SDS011;43999;51.660;5.616;2023-02-15T17:35:14;46.08;;;32.78;;
58196;SDS011;43999;51.660;5.616;2023-02-15T17:38:18;38.42;;;30.30;;
58196;SDS011;43999;51.660;5.616;2023-02-15T17:40:55;34.85;;;27.35;;
58196;SDS011;43999;51.660;5.616;2023-02-15T17:43:28;36.10;;;30.25;;
58196;SDS011;43999;51.660;5.616;2023-02-15T17:45:56;38.53;;;29.83;;
58196;SDS011;43999;51.660;5.616;2023-02-15T17:51:07;38.20;;;31.95;;
58196;SDS011;43999;51.660;5.616;2023-02-15T17:53:44;42.05;;;31.60;;
58196;SDS011;43999;51.660;5.616;2023-02-15T17:56:36;39.28;;;31.60;;
58196;SDS011;43999;51.660;5.616;2023-02-15T17:59:06;43.15;;;31.70;;
58196;SDS011;43999;51.660;5.616;2023-02-15T18:01:42;38.08;;;30.60;;
58196;SDS011;43999;51.660;5.616;2023-02-15T18:04:36;39.58;;;32.65;;
58196;SDS011;43999;51.660;5.616;2023-02-15T18:07:23;36.72;;;31.08;;
58196;SDS011;43999;51.660;5.616;2023-02-15T18:10:13;39.75;;;31.42;;
58196;SDS011;43999;51.660;5.616;2023-02-15T18:13:11;42.60;;;33.45;;
58196;SDS011;43999;51.660;5.616;2023-02-15T18:15:41;40.65;;;31.92;;
58196;SDS011;43999;51.660;5.616;2023-02-15T18:18:11;41.17;;;35.95;;
58196;SDS011;43999;51.660;5.616;2023-02-15T18:20:43;38.90;;;30.42;;
58196;SDS011;43999;51.660;5.616;2023-02-15T18:23:27;40.25;;;34.03;;
58196;SDS011;43999;51.660;5.616;2023-02-15T18:25:55;47.25;;;33.78;;
58196;SDS011;43999;51.660;5.616;2023-02-15T18:28:24;39.70;;;32.70;;
58196;SDS011;43999;51.660;5.616;2023-02-15T18:30:52;41.22;;;32.72;;
58196;SDS011;43999;51.660;5.616;2023-02-15T18:33:32;38.90;;;33.55;;
58196;SDS011;43999;51.660;5.616;2023-02-15T18:36:14;41.05;;;33.40;;
58196;SDS011;43999;51.660;5.616;2023-02-15T18:39:31;42.55;;;34.78;;
58196;SDS011;43999;51.660;5.616;2023-02-15T18:42:17;43.40;;;34.63;;
58196;SDS011;43999;51.660;5.616;2023-02-15T18:44:46;44.78;;;35.67;;
58196;SDS011;43999;51.660;5.616;2023-02-15T18:47:17;41.83;;;35.30;;
58196;SDS011;43999;51.660;5.616;2023-02-15T18:49:50;44.95;;;33.28;;
58196;SDS011;43999;51.660;5.616;2023-02-15T18:52:19;44.67;;;36.10;;
58196;SDS011;43999;51.660;5.616;2023-02-15T18:55:00;40.67;;;34.90;;
58196;SDS011;43999;51.660;5.616;2023-02-15T18:57:51;45.70;;;35.78;;
58196;SDS011;43999;51.660;5.616;2023-02-15T19:00:23;54.75;;;40.92;;
58196;SDS011;43999;51.660;5.616;2023-02-15T19:05:30;50.38;;;37.22;;
58196;SDS011;43999;51.660;5.616;2023-02-15T19:07:59;47.70;;;39.05;;
58196;SDS011;43999;51.660;5.616;2023-02-15T19:10:30;48.33;;;36.78;;
58196;SDS011;43999;51.660;5.616;2023-02-15T19:12:59;51.53;;;37.95;;